sensor_id;sensor_type;location;lat;lon;timestamp;pressure;altitude;pressure_sealevel;temperature;humidity
30021;BME280;16861;52.294;7.760;2023-04-19T00:01:59;101043.72;;;12.56;52.83
30021;BME280;16861;52.294;7.760;2023-04-19T00:04:27;101048.28;;;12.53;52.62
30021;BME280;16861;52.294;7.760;2023-04-19T00:06:53;101049.28;;;12.50;52.75
30021;BME280;16861;52.294;7.760;2023-04-19T00:09:20;101045.94;;;12.46;52.74
30021;BME280;16861;52.294;7.760;2023-04-19T00:11:46;101041.63;;;12.44;52.80
30021;BME280;16861;52.294;7.760;2023-04-19T00:14:13;101041.84;;;12.39;52.93
30021;BME280;16861;52.294;7.760;2023-04-19T00:16:40;101041.13;;;12.35;52.83
30021;BME280;16861;52.294;7.760;2023-04-19T00:19:07;101038.66;;;12.31;52.95
30021;BME280;16861;52.294;7.760;2023-04-19T00:21:34;101033.50;;;12.28;52.99
30021;BME280;16861;52.294;7.760;2023-04-19T00:24:01;101031.09;;;12.23;53.19
30021;BME280;16861;52.294;7.760;2023-04-19T00:26:28;101033.84;;;12.20;53.20
30021;BME280;16861;52.294;7.760;2023-04-19T00:28:54;101031.41;;;12.15;53.21
30021;BME280;16861;52.294;7.760;2023-04-19T00:31:21;101023.63;;;12.12;53.30
30021;BME280;16861;52.294;7.760;2023-04-19T00:33:48;101026.47;;;12.07;53.17
30021;BME280;16861;52.294;7.760;2023-04-19T00:36:14;101031.84;;;12.04;53.48
30021;BME280;16861;52.294;7.760;2023-04-19T00:38:41;101025.84;;;12.01;53.46
30021;BME280;16861;52.294;7.760;2023-04-19T00:41:07;101027.75;;;11.97;53.44
30021;BME280;16861;52.294;7.760;2023-04-19T00:43:34;101032.22;;;11.95;53.62
30021;BME280;16861;52.294;7.760;2023-04-19T00:46:01;101027.09;;;11.92;53.61
30021;BME280;16861;52.294;7.760;2023-04-19T00:48:28;101023.66;;;11.90;53.70
30021;BME280;16861;52.294;7.760;2023-04-19T00:50:56;101030.78;;;11.88;53.80
30021;BME280;16861;52.294;7.760;2023-04-19T00:53:22;101027.34;;;11.85;53.73
30021;BME280;16861;52.294;7.760;2023-04-19T00:55:49;101020.34;;;11.84;53.85
30021;BME280;16861;52.294;7.760;2023-04-19T00:58:16;101023.94;;;11.83;53.87
30021;BME280;16861;52.294;7.760;2023-04-19T01:00:43;101020.47;;;11.81;53.91
30021;BME280;16861;52.294;7.760;2023-04-19T01:03:09;101021.41;;;11.80;53.98
30021;BME280;16861;52.294;7.760;2023-04-19T01:05:36;101014.41;;;11.79;53.95
30021;BME280;16861;52.294;7.760;2023-04-19T01:08:03;101018.88;;;11.77;53.93
30021;BME280;16861;52.294;7.760;2023-04-19T01:10:30;101018.09;;;11.75;54.17
30021;BME280;16861;52.294;7.760;2023-04-19T01:12:56;101019.03;;;11.74;53.91
30021;BME280;16861;52.294;7.760;2023-04-19T01:15:23;101022.63;;;11.71;54.10
30021;BME280;16861;52.294;7.760;2023-04-19T01:17:49;101013.94;;;11.69;54.14
30021;BME280;16861;52.294;7.760;2023-04-19T01:20:16;101010.44;;;11.69;54.09
30021;BME280;16861;52.294;7.760;2023-04-19T01:22:43;101015.75;;;11.67;54.10
30021;BME280;16861;52.294;7.760;2023-04-19T01:25:10;101010.59;;;11.66;54.08
30021;BME280;16861;52.294;7.760;2023-04-19T01:27:36;101013.28;;;11.64;53.95
30021;BME280;16861;52.294;7.760;2023-04-19T01:30:03;101010.69;;;11.63;53.92
30021;BME280;16861;52.294;7.760;2023-04-19T01:32:30;101014.25;;;11.62;54.01
30021;BME280;16861;52.294;7.760;2023-04-19T01:34:57;101014.38;;;11.58;53.88
30021;BME280;16861;52.294;7.760;2023-04-19T01:37:24;101001.25;;;11.57;53.80
30021;BME280;16861;52.294;7.760;2023-04-19T01:39:50;101009.22;;;11.55;53.77
30021;BME280;16861;52.294;7.760;2023-04-19T01:42:17;101013.72;;;11.53;53.70
30021;BME280;16861;52.294;7.760;2023-04-19T01:44:43;101006.78;;;11.51;53.68
30021;BME280;16861;52.294;7.760;2023-04-19T01:47:10;101012.19;;;11.47;53.83
30021;BME280;16861;52.294;7.760;2023-04-19T01:49:36;101008.72;;;11.45;53.64
30021;BME280;16861;52.294;7.760;2023-04-19T01:52:03;101003.59;;;11.42;53.50
30021;BME280;16861;52.294;7.760;2023-04-19T01:54:30;101002.84;;;11.39;53.58
30021;BME280;16861;52.294;7.760;2023-04-19T01:56:56;101009.09;;;11.36;53.49
30021;BME280;16861;52.294;7.760;2023-04-19T01:59:23;101003.13;;;11.32;53.38
30021;BME280;16861;52.294;7.760;2023-04-19T02:01:50;101006.72;;;11.30;53.49
30021;BME280;16861;52.294;7.760;2023-04-19T02:04:19;101015.63;;;11.27;53.44
30021;BME280;16861;52.294;7.760;2023-04-19T02:06:46;101013.03;;;11.26;53.24
30021;BME280;16861;52.294;7.760;2023-04-19T02:09:13;101012.22;;;11.24;53.21
30021;BME280;16861;52.294;7.760;2023-04-19T02:11:39;101012.31;;;11.22;52.95
30021;BME280;16861;52.294;7.760;2023-04-19T02:14:06;101012.38;;;11.20;53.06
30021;BME280;16861;52.294;7.760;2023-04-19T02:16:32;101013.34;;;11.18;52.75
30021;BME280;16861;52.294;7.760;2023-04-19T02:19:01;101015.19;;;11.16;52.76
30021;BME280;16861;52.294;7.760;2023-04-19T02:21:28;101014.34;;;11.15;52.53
30021;BME280;16861;52.294;7.760;2023-04-19T02:23:55;101011.75;;;11.14;52.19
30021;BME280;16861;52.294;7.760;2023-04-19T02:26:21;101018.78;;;11.13;52.15
30021;BME280;16861;52.294;7.760;2023-04-19T02:28:50;101011.88;;;11.11;51.94
30021;BME280;16861;52.294;7.760;2023-04-19T02:31:18;101007.53;;;11.10;51.71
30021;BME280;16861;52.294;7.760;2023-04-19T02:33:45;101013.72;;;11.08;51.57
30021;BME280;16861;52.294;7.760;2023-04-19T02:36:11;101003.28;;;11.05;51.43
30021;BME280;16861;52.294;7.760;2023-04-19T02:38:38;101012.13;;;11.04;51.17
30021;BME280;16861;52.294;7.760;2023-04-19T02:41:04;101013.94;;;11.02;51.26
30021;BME280;16861;52.294;7.760;2023-04-19T02:43:31;101017.56;;;11.00;50.96
30021;BME280;16861;52.294;7.760;2023-04-19T02:45:58;101023.81;;;10.97;50.86
30021;BME280;16861;52.294;7.760;2023-04-19T02:48:24;101021.22;;;10.95;50.60
30021;BME280;16861;52.294;7.760;2023-04-19T02:50:51;101027.47;;;10.93;50.24
30021;BME280;16861;52.294;7.760;2023-04-19T02:53:18;101017.00;;;10.91;49.83
30021;BME280;16861;52.294;7.760;2023-04-19T02:55:44;101017.97;;;10.89;49.60
30021;BME280;16861;52.294;7.760;2023-04-19T02:58:10;101025.97;;;10.86;49.33
30021;BME280;16861;52.294;7.760;2023-04-19T03:00:37;101021.75;;;10.81;48.87
30021;BME280;16861;52.294;7.760;2023-04-19T03:03:04;101019.28;;;10.77;48.66
30021;BME280;16861;52.294;7.760;2023-04-19T03:05:31;101031.69;;;10.73;48.50
30021;BME280;16861;52.294;7.760;2023-04-19T03:07:57;101031.84;;;10.70;48.22
30021;BME280;16861;52.294;7.760;2023-04-19T03:10:24;101028.50;;;10.65;48.10
30021;BME280;16861;52.294;7.760;2023-04-19T03:12:50;101027.69;;;10.63;48.07
30021;BME280;16861;52.294;7.760;2023-04-19T03:15:18;101030.44;;;10.60;48.02
30021;BME280;16861;52.294;7.760;2023-04-19T03:17:45;101019.16;;;10.56;47.77
30021;BME280;16861;52.294;7.760;2023-04-19T03:20:12;101025.47;;;10.52;47.58
30021;BME280;16861;52.294;7.760;2023-04-19T03:22:38;101031.69;;;10.49;47.58
30021;BME280;16861;52.294;7.760;2023-04-19T03:25:05;101027.47;;;10.45;47.55
30021;BME280;16861;52.294;7.760;2023-04-19T03:27:34;101027.56;;;10.40;47.30
30021;BME280;16861;52.294;7.760;2023-04-19T03:30:00;101032.97;;;10.37;47.63
30021;BME280;16861;52.294;7.760;2023-04-19T03:32:27;101035.75;;;10.33;47.40
30021;BME280;16861;52.294;7.760;2023-04-19T03:34:53;101034.97;;;10.30;47.56
30021;BME280;16861;52.294;7.760;2023-04-19T03:37:20;101031.56;;;10.27;47.44
30021;BME280;16861;52.294;7.760;2023-04-19T03:39:46;101033.44;;;10.23;47.21
30021;BME280;16861;52.294;7.760;2023-04-19T03:42:12;101031.84;;;10.19;47.16
30021;BME280;16861;52.294;7.760;2023-04-19T03:44:39;101033.72;;;10.15;46.99
30021;BME280;16861;52.294;7.760;2023-04-19T03:47:05;101031.25;;;10.11;47.14
30021;BME280;16861;52.294;7.760;2023-04-19T03:49:32;101031.41;;;10.06;46.90
30021;BME280;16861;52.294;7.760;2023-04-19T03:51:58;101026.25;;;10.03;47.04
30021;BME280;16861;52.294;7.760;2023-04-19T03:54:24;101027.31;;;9.97;46.78
30021;BME280;16861;52.294;7.760;2023-04-19T03:56:51;101030.09;;;9.93;46.85
30021;BME280;16861;52.294;7.760;2023-04-19T03:59:17;101027.63;;;9.88;46.79
30021;BME280;16861;52.294;7.760;2023-04-19T04:01:44;101030.44;;;9.82;47.06
30021;BME280;16861;52.294;7.760;2023-04-19T04:04:11;101039.34;;;9.77;47.03
30021;BME280;16861;52.294;7.760;2023-04-19T04:06:38;101026.41;;;9.71;46.72
30021;BME280;16861;52.294;7.760;2023-04-19T04:09:04;101028.34;;;9.66;46.89
30021;BME280;16861;52.294;7.760;2023-04-19T04:11:31;101035.53;;;9.61;46.92
30021;BME280;16861;52.294;7.760;2023-04-19T04:13:57;101034.75;;;9.57;47.17
30021;BME280;16861;52.294;7.760;2023-04-19T04:16:23;101033.19;;;9.51;47.25
30021;BME280;16861;52.294;7.760;2023-04-19T04:18:50;101028.94;;;9.47;47.11
30021;BME280;16861;52.294;7.760;2023-04-19T04:21:16;101029.13;;;9.41;47.04
30021;BME280;16861;52.294;7.760;2023-04-19T04:23:43;101029.28;;;9.36;47.07
30021;BME280;16861;52.294;7.760;2023-04-19T04:26:10;101037.34;;;9.30;47.15
30021;BME280;16861;52.294;7.760;2023-04-19T04:28:38;101034.91;;;9.24;46.99
30021;BME280;16861;52.294;7.760;2023-04-19T04:31:05;101042.97;;;9.18;47.23
30021;BME280;16861;52.294;7.760;2023-04-19T04:33:31;101045.75;;;9.13;47.02
30021;BME280;16861;52.294;7.760;2023-04-19T04:35:58;101039.78;;;9.08;47.33
30021;BME280;16861;52.294;7.760;2023-04-19T04:38:24;101042.56;;;9.02;47.02
30021;BME280;16861;52.294;7.760;2023-04-19T04:40:54;101045.44;;;8.94;47.44
30021;BME280;16861;52.294;7.760;2023-04-19T04:43:24;101035.97;;;8.88;47.23
30021;BME280;16861;52.294;7.760;2023-04-19T04:45:54;101044.75;;;8.87;47.34
30021;BME280;16861;52.294;7.760;2023-04-19T04:48:22;101042.16;;;8.85;47.41
30021;BME280;16861;52.294;7.760;2023-04-19T04:50:49;101041.50;;;8.79;47.75
30021;BME280;16861;52.294;7.760;2023-04-19T04:53:15;101033.78;;;8.72;47.62
30021;BME280;16861;52.294;7.760;2023-04-19T04:55:42;101041.78;;;8.68;47.78
30021;BME280;16861;52.294;7.760;2023-04-19T04:58:08;101043.66;;;8.64;47.74
30021;BME280;16861;52.294;7.760;2023-04-19T05:00:34;101038.53;;;8.59;48.00
30021;BME280;16861;52.294;7.760;2023-04-19T05:03:01;101050.81;;;8.57;47.76
30021;BME280;16861;52.294;7.760;2023-04-19T05:05:28;101038.63;;;8.55;47.92
30021;BME280;16861;52.294;7.760;2023-04-19T05:07:55;101050.97;;;8.51;47.95
30021;BME280;16861;52.294;7.760;2023-04-19T05:10:21;101051.91;;;8.48;47.93
30021;BME280;16861;52.294;7.760;2023-04-19T05:12:48;101045.94;;;8.43;47.95
30021;BME280;16861;52.294;7.760;2023-04-19T05:15:14;101047.81;;;8.38;48.01
30021;BME280;16861;52.294;7.760;2023-04-19T05:17:40;101045.25;;;8.37;48.06
30021;BME280;16861;52.294;7.760;2023-04-19T05:20:08;101047.94;;;8.33;48.21
30021;BME280;16861;52.294;7.760;2023-04-19T05:22:35;101045.34;;;8.32;48.20
30021;BME280;16861;52.294;7.760;2023-04-19T05:25:01;101047.22;;;8.28;48.30
30021;BME280;16861;52.294;7.760;2023-04-19T05:27:28;101046.34;;;8.28;48.51
30021;BME280;16861;52.294;7.760;2023-04-19T05:29:54;101048.16;;;8.26;48.46
30021;BME280;16861;52.294;7.760;2023-04-19T05:32:20;101044.69;;;8.24;48.74
30021;BME280;16861;52.294;7.760;2023-04-19T05:34:47;101051.72;;;8.23;48.38
30021;BME280;16861;52.294;7.760;2023-04-19T05:37:13;101057.84;;;8.22;48.84
30021;BME280;16861;52.294;7.760;2023-04-19T05:39:40;101057.84;;;8.22;48.83
30021;BME280;16861;52.294;7.760;2023-04-19T05:42:09;101058.72;;;8.23;48.97
30021;BME280;16861;52.294;7.760;2023-04-19T05:44:36;101051.75;;;8.21;49.05
30021;BME280;16861;52.294;7.760;2023-04-19T05:47:02;101057.00;;;8.21;48.65
30021;BME280;16861;52.294;7.760;2023-04-19T05:49:29;101051.75;;;8.21;48.97
30021;BME280;16861;52.294;7.760;2023-04-19T05:51:55;101055.19;;;8.24;49.02
30021;BME280;16861;52.294;7.760;2023-04-19T05:54:22;101057.78;;;8.25;49.19
30021;BME280;16861;52.294;7.760;2023-04-19T05:56:48;101053.44;;;8.24;49.21
30021;BME280;16861;52.294;7.760;2023-04-19T05:59:15;101054.25;;;8.26;49.24
30021;BME280;16861;52.294;7.760;2023-04-19T06:01:41;101047.16;;;8.30;49.12
30021;BME280;16861;52.294;7.760;2023-04-19T06:04:08;101048.00;;;8.30;49.19
30021;BME280;16861;52.294;7.760;2023-04-19T06:06:34;101051.47;;;8.32;49.12
30021;BME280;16861;52.294;7.760;2023-04-19T06:09:03;101050.53;;;8.35;49.16
30021;BME280;16861;52.294;7.760;2023-04-19T06:11:29;101049.63;;;8.36;49.08
30021;BME280;16861;52.294;7.760;2023-04-19T06:14:12;101046.94;;;8.38;49.12
30021;BME280;16861;52.294;7.760;2023-04-19T06:16:40;101046.94;;;8.38;49.20
30021;BME280;16861;52.294;7.760;2023-04-19T06:19:07;101057.41;;;8.39;49.27
30021;BME280;16861;52.294;7.760;2023-04-19T06:21:33;101058.22;;;8.41;49.24
30021;BME280;16861;52.294;7.760;2023-04-19T06:24:00;101055.59;;;8.41;49.16
30021;BME280;16861;52.294;7.760;2023-04-19T06:26:27;101056.47;;;8.42;49.16
30021;BME280;16861;52.294;7.760;2023-04-19T06:28:53;101049.41;;;8.44;49.48
30021;BME280;16861;52.294;7.760;2023-04-19T06:31:20;101060.66;;;8.49;49.69
30021;BME280;16861;52.294;7.760;2023-04-19T06:33:46;101044.84;;;8.51;49.78
30021;BME280;16861;52.294;7.760;2023-04-19T06:36:13;101055.19;;;8.58;49.91
30021;BME280;16861;52.294;7.760;2023-04-19T06:38:39;101052.41;;;8.63;49.76
30021;BME280;16861;52.294;7.760;2023-04-19T06:41:06;101051.34;;;8.70;49.62
30021;BME280;16861;52.294;7.760;2023-04-19T06:43:34;101046.78;;;8.77;49.50
30021;BME280;16861;52.294;7.760;2023-04-19T06:46:01;101054.47;;;8.83;49.38
30021;BME280;16861;52.294;7.760;2023-04-19T06:48:29;101057.72;;;8.92;49.34
30021;BME280;16861;52.294;7.760;2023-04-19T06:50:56;101052.38;;;8.96;49.30
30021;BME280;16861;52.294;7.760;2023-04-19T06:53:22;101045.19;;;9.02;49.47
30021;BME280;16861;52.294;7.760;2023-04-19T06:55:57;101059.09;;;9.05;49.31
30021;BME280;16861;52.294;7.760;2023-04-19T06:58:26;101057.97;;;9.14;49.47
30021;BME280;16861;52.294;7.760;2023-04-19T07:00:53;101056.06;;;9.19;49.26
30021;BME280;16861;52.294;7.760;2023-04-19T07:03:20;101060.22;;;9.27;49.27
30021;BME280;16861;52.294;7.760;2023-04-19T07:05:47;101066.16;;;9.33;49.20
30021;BME280;16861;52.294;7.760;2023-04-19T07:08:14;101056.34;;;9.38;48.94
30021;BME280;16861;52.294;7.760;2023-04-19T07:10:41;101059.69;;;9.44;49.02
30021;BME280;16861;52.294;7.760;2023-04-19T07:13:12;101058.59;;;9.51;48.70
30021;BME280;16861;52.294;7.760;2023-04-19T07:15:38;101063.69;;;9.56;49.07
30021;BME280;16861;52.294;7.760;2023-04-19T07:18:05;101066.16;;;9.62;48.62
30021;BME280;16861;52.294;7.760;2023-04-19T07:20:32;101059.88;;;9.66;48.98
30021;BME280;16861;52.294;7.760;2023-04-19T07:22:59;101060.56;;;9.73;48.89
30021;BME280;16861;52.294;7.760;2023-04-19T07:25:26;101069.09;;;9.80;48.54
30021;BME280;16861;52.294;7.760;2023-04-19T07:27:53;101070.72;;;9.84;48.58
30021;BME280;16861;52.294;7.760;2023-04-19T07:30:20;101062.63;;;9.90;48.61
30021;BME280;16861;52.294;7.760;2023-04-19T07:32:46;101065.91;;;9.97;48.48
30021;BME280;16861;52.294;7.760;2023-04-19T07:35:13;101068.38;;;10.01;48.31
30021;BME280;16861;52.294;7.760;2023-04-19T07:37:39;101056.84;;;10.06;48.55
30021;BME280;16861;52.294;7.760;2023-04-19T07:40:06;101061.00;;;10.13;48.58
30021;BME280;16861;52.294;7.760;2023-04-19T07:42:33;101047.63;;;10.19;48.49
30021;BME280;16861;52.294;7.760;2023-04-19T07:44:59;101047.41;;;10.25;48.31
30021;BME280;16861;52.294;7.760;2023-04-19T07:47:25;101048.03;;;10.32;48.28
30021;BME280;16861;52.294;7.760;2023-04-19T07:49:52;101041.72;;;10.38;48.20
30021;BME280;16861;52.294;7.760;2023-04-19T07:52:19;101039.75;;;10.45;48.36
30021;BME280;16861;52.294;7.760;2023-04-19T07:54:45;101045.72;;;10.50;47.96
30021;BME280;16861;52.294;7.760;2023-04-19T07:57:12;101044.63;;;10.55;47.76
30021;BME280;16861;52.294;7.760;2023-04-19T07:59:38;101040.91;;;10.61;47.75
30021;BME280;16861;52.294;7.760;2023-04-19T08:02:05;101038.06;;;10.67;47.93
30021;BME280;16861;52.294;7.760;2023-04-19T08:04:32;101039.59;;;10.73;47.99
30021;BME280;16861;52.294;7.760;2023-04-19T08:06:59;101029.69;;;10.80;47.81
30021;BME280;16861;52.294;7.760;2023-04-19T08:09:26;101046.06;;;10.88;47.58
30021;BME280;16861;52.294;7.760;2023-04-19T08:11:52;101034.44;;;10.94;47.33
30021;BME280;16861;52.294;7.760;2023-04-19T08:14:19;101037.72;;;11.01;47.39
30021;BME280;16861;52.294;7.760;2023-04-19T08:17:00;101034.84;;;11.07;46.99
30021;BME280;16861;52.294;7.760;2023-04-19T08:19:29;101031.25;;;11.10;47.01
30021;BME280;16861;52.294;7.760;2023-04-19T08:21:56;101023.13;;;11.14;46.64
30021;BME280;16861;52.294;7.760;2023-04-19T08:24:22;101034.28;;;11.21;46.48
30021;BME280;16861;52.294;7.760;2023-04-19T08:26:48;101024.50;;;11.25;46.52
30021;BME280;16861;52.294;7.760;2023-04-19T08:29:19;101026.88;;;11.31;46.62
30021;BME280;16861;52.294;7.760;2023-04-19T08:31:47;101027.50;;;11.38;46.50
30021;BME280;16861;52.294;7.760;2023-04-19T08:34:13;101019.28;;;11.45;46.40
30021;BME280;16861;52.294;7.760;2023-04-19T08:36:40;101027.84;;;11.52;46.39
30021;BME280;16861;52.294;7.760;2023-04-19T08:39:21;101023.00;;;11.62;46.34
30021;BME280;16861;52.294;7.760;2023-04-19T08:42:04;101024.50;;;11.69;45.97
30021;BME280;16861;52.294;7.760;2023-04-19T08:44:49;101020.47;;;11.81;45.88
30021;BME280;16861;52.294;7.760;2023-04-19T08:47:36;101020.94;;;11.91;46.03
30021;BME280;16861;52.294;7.760;2023-04-19T08:50:23;101015.22;;;12.02;45.87
30021;BME280;16861;52.294;7.760;2023-04-19T08:53:01;101010.50;;;12.10;45.89
30021;BME280;16861;52.294;7.760;2023-04-19T08:55:31;101007.41;;;12.21;45.93
30021;BME280;16861;52.294;7.760;2023-04-19T08:57:57;101004.34;;;12.31;45.53
30021;BME280;16861;52.294;7.760;2023-04-19T09:00:24;101000.28;;;12.43;45.48
30021;BME280;16861;52.294;7.760;2023-04-19T09:02:51;101009.38;;;12.56;44.71
30021;BME280;16861;52.294;7.760;2023-04-19T09:05:20;101007.13;;;12.68;44.61
30021;BME280;16861;52.294;7.760;2023-04-19T09:10:19;100995.63;;;12.88;44.29
30021;BME280;16861;52.294;7.760;2023-04-19T09:13:03;100998.00;;;12.94;44.04
30021;BME280;16861;52.294;7.760;2023-04-19T09:15:37;100984.16;;;13.07;44.05
30021;BME280;16861;52.294;7.760;2023-04-19T09:18:07;100987.03;;;13.21;44.42
30021;BME280;16861;52.294;7.760;2023-04-19T09:20:40;100985.56;;;13.33;44.05
30021;BME280;16861;52.294;7.760;2023-04-19T09:23:08;100991.97;;;13.47;43.42
30021;BME280;16861;52.294;7.760;2023-04-19T09:25:38;100989.69;;;13.58;43.20
30021;BME280;16861;52.294;7.760;2023-04-19T09:28:26;100986.44;;;13.71;43.46
30021;BME280;16861;52.294;7.760;2023-04-19T09:30:54;100970.84;;;13.82;42.98
30021;BME280;16861;52.294;7.760;2023-04-19T09:33:40;100972.84;;;13.94;42.92
30021;BME280;16861;52.294;7.760;2023-04-19T09:36:07;100969.72;;;14.04;42.68
30021;BME280;16861;52.294;7.760;2023-04-19T09:38:47;100969.44;;;14.10;41.82
30021;BME280;16861;52.294;7.760;2023-04-19T09:41:15;100959.91;;;14.24;42.45
30021;BME280;16861;52.294;7.760;2023-04-19T09:43:43;100957.78;;;14.30;42.42
30021;BME280;16861;52.294;7.760;2023-04-19T09:46:35;100961.09;;;14.34;40.71
30021;BME280;16861;52.294;7.760;2023-04-19T09:49:23;100954.63;;;14.40;41.01
30021;BME280;16861;52.294;7.760;2023-04-19T09:52:12;100949.84;;;14.46;40.27
30021;BME280;16861;52.294;7.760;2023-04-19T09:54:40;100957.72;;;14.48;41.05
30021;BME280;16861;52.294;7.760;2023-04-19T09:57:07;100940.78;;;14.51;41.25
30021;BME280;16861;52.294;7.760;2023-04-19T09:59:34;100949.41;;;14.54;41.06
30021;BME280;16861;52.294;7.760;2023-04-19T10:02:01;100935.16;;;14.57;40.47
30021;BME280;16861;52.294;7.760;2023-04-19T10:04:29;100923.44;;;14.61;40.13
30021;BME280;16861;52.294;7.760;2023-04-19T10:07:16;100931.22;;;14.64;40.43
30021;BME280;16861;52.294;7.760;2023-04-19T10:09:45;100922.25;;;14.67;40.47
30021;BME280;16861;52.294;7.760;2023-04-19T10:12:23;100924.66;;;14.71;40.51
30021;BME280;16861;52.294;7.760;2023-04-19T10:15:10;100918.94;;;14.79;40.47
30021;BME280;16861;52.294;7.760;2023-04-19T10:17:38;100915.84;;;14.87;40.40
30021;BME280;16861;52.294;7.760;2023-04-19T10:20:09;100919.88;;;14.94;39.43
30021;BME280;16861;52.294;7.760;2023-04-19T10:22:36;100912.34;;;15.03;40.20
30021;BME280;16861;52.294;7.760;2023-04-19T10:25:11;100912.84;;;15.09;39.56
30021;BME280;16861;52.294;7.760;2023-04-19T10:27:39;100907.75;;;15.21;39.99
30021;BME280;16861;52.294;7.760;2023-04-19T10:30:16;100917.94;;;15.29;39.65
30021;BME280;16861;52.294;7.760;2023-04-19T10:32:45;100893.34;;;15.41;39.68
30021;BME280;16861;52.294;7.760;2023-04-19T10:35:21;100891.09;;;15.49;38.83
30021;BME280;16861;52.294;7.760;2023-04-19T10:38:08;100892.41;;;15.57;39.14
30021;BME280;16861;52.294;7.760;2023-04-19T10:43:18;100876.81;;;15.81;39.76
30021;BME280;16861;52.294;7.760;2023-04-19T10:45:45;100877.00;;;15.93;39.80
30021;BME280;16861;52.294;7.760;2023-04-19T10:51:02;100877.97;;;16.21;39.13
30021;BME280;16861;52.294;7.760;2023-04-19T10:53:58;100882.50;;;16.33;38.79
30021;BME280;16861;52.294;7.760;2023-04-19T11:03:58;100872.84;;;17.55;40.53
30021;BME280;16861;52.294;7.760;2023-04-19T11:06:25;100866.72;;;18.05;40.46
30021;BME280;16861;52.294;7.760;2023-04-19T11:08:53;100850.19;;;18.64;39.66
30021;BME280;16861;52.294;7.760;2023-04-19T11:11:20;100847.63;;;19.22;40.25
30021;BME280;16861;52.294;7.760;2023-04-19T11:13:47;100852.13;;;19.81;38.96
30021;BME280;16861;52.294;7.760;2023-04-19T11:16:14;100839.81;;;20.35;37.71
30021;BME280;16861;52.294;7.760;2023-04-19T11:18:44;100837.44;;;20.86;36.92
30021;BME280;16861;52.294;7.760;2023-04-19T11:21:14;100832.75;;;21.32;34.88
30021;BME280;16861;52.294;7.760;2023-04-19T11:23:43;100825.16;;;21.80;35.68
30021;BME280;16861;52.294;7.760;2023-04-19T11:26:09;100826.69;;;22.24;36.12
30021;BME280;16861;52.294;7.760;2023-04-19T11:28:39;100827.31;;;22.67;33.80
30021;BME280;16861;52.294;7.760;2023-04-19T11:31:06;100827.03;;;23.10;34.19
30021;BME280;16861;52.294;7.760;2023-04-19T11:33:34;100811.72;;;23.40;33.03
30021;BME280;16861;52.294;7.760;2023-04-19T11:36:02;100802.00;;;23.67;32.51
30021;BME280;16861;52.294;7.760;2023-04-19T11:38:29;100799.91;;;23.89;32.27
30021;BME280;16861;52.294;7.760;2023-04-19T11:41:02;100794.03;;;24.03;31.56
30021;BME280;16861;52.294;7.760;2023-04-19T11:43:34;100799.19;;;24.25;30.96
30021;BME280;16861;52.294;7.760;2023-04-19T11:46:05;100781.88;;;24.45;30.18
30021;BME280;16861;52.294;7.760;2023-04-19T11:48:32;100786.97;;;24.67;31.13
30021;BME280;16861;52.294;7.760;2023-04-19T11:50:59;100794.03;;;24.86;30.58
30021;BME280;16861;52.294;7.760;2023-04-19T11:53:29;100777.00;;;25.04;29.89
30021;BME280;16861;52.294;7.760;2023-04-19T11:55:57;100766.31;;;25.20;29.33
30021;BME280;16861;52.294;7.760;2023-04-19T11:58:32;100774.66;;;25.35;29.21
30021;BME280;16861;52.294;7.760;2023-04-19T12:03:40;100764.72;;;25.62;26.92
30021;BME280;16861;52.294;7.760;2023-04-19T12:06:13;100763.06;;;25.78;27.18
30021;BME280;16861;52.294;7.760;2023-04-19T12:08:48;100766.31;;;25.82;26.65
30021;BME280;16861;52.294;7.760;2023-04-19T12:11:16;100770.03;;;25.89;27.07
30021;BME280;16861;52.294;7.760;2023-04-19T12:14:11;100762.25;;;25.86;27.14
30021;BME280;16861;52.294;7.760;2023-04-19T12:16:39;100763.13;;;25.95;26.78
30021;BME280;16861;52.294;7.760;2023-04-19T12:19:13;100765.47;;;25.89;26.48
30021;BME280;16861;52.294;7.760;2023-04-19T12:21:40;100761.28;;;25.95;27.56
30021;BME280;16861;52.294;7.760;2023-04-19T12:24:07;100756.91;;;26.02;27.66
30021;BME280;16861;52.294;7.760;2023-04-19T12:26:34;100757.09;;;26.18;27.67
30021;BME280;16861;52.294;7.760;2023-04-19T12:29:02;100739.63;;;26.38;27.67
30021;BME280;16861;52.294;7.760;2023-04-19T12:31:32;100744.50;;;26.60;26.60
30021;BME280;16861;52.294;7.760;2023-04-19T12:33:59;100751.78;;;26.84;27.06
30021;BME280;16861;52.294;7.760;2023-04-19T12:36:25;100745.69;;;26.99;26.78
30021;BME280;16861;52.294;7.760;2023-04-19T12:38:53;100738.75;;;27.13;26.02
30021;BME280;16861;52.294;7.760;2023-04-19T12:41:19;100728.75;;;27.22;25.83
30021;BME280;16861;52.294;7.760;2023-04-19T12:43:46;100729.06;;;27.27;25.63
30021;BME280;16861;52.294;7.760;2023-04-19T12:46:13;100722.97;;;27.33;26.05
30021;BME280;16861;52.294;7.760;2023-04-19T12:48:39;100726.47;;;27.42;25.64
30021;BME280;16861;52.294;7.760;2023-04-19T12:51:06;100727.94;;;27.53;25.40
30021;BME280;16861;52.294;7.760;2023-04-19T12:53:32;100722.84;;;27.66;25.68
30021;BME280;16861;52.294;7.760;2023-04-19T12:55:59;100718.88;;;27.77;24.83
30021;BME280;16861;52.294;7.760;2023-04-19T12:58:26;100713.81;;;27.82;24.76
30021;BME280;16861;52.294;7.760;2023-04-19T13:00:53;100712.22;;;27.88;25.73
30021;BME280;16861;52.294;7.760;2023-04-19T13:03:20;100704.75;;;27.99;24.90
30021;BME280;16861;52.294;7.760;2023-04-19T13:05:47;100692.72;;;28.01;24.02
30021;BME280;16861;52.294;7.760;2023-04-19T13:08:16;100703.03;;;27.97;24.19
30021;BME280;16861;52.294;7.760;2023-04-19T13:11:02;100695.75;;;27.98;24.04
30021;BME280;16861;52.294;7.760;2023-04-19T13:13:29;100688.97;;;28.02;24.17
30021;BME280;16861;52.294;7.760;2023-04-19T13:15:55;100675.72;;;28.07;23.14
30021;BME280;16861;52.294;7.760;2023-04-19T13:18:22;100682.47;;;28.12;23.41